sensor_id;sensor_type;location;lat;lon;timestamp;P1;durP1;ratioP1;P2;durP2;ratioP2
24305;SDS011;12423;48.768;8.850;2022-11-20T00:01:49;8.75;;;2.08;;
24305;SDS011;12423;48.768;8.850;2022-11-20T00:03:53;4.80;;;2.28;;
24305;SDS011;12423;48.768;8.850;2022-11-20T00:05:59;5.70;;;2.00;;
24305;SDS011;12423;48.768;8.850;2022-11-20T00:08:01;8.40;;;3.50;;
24305;SDS011;12423;48.768;8.850;2022-11-20T00:10:02;10.73;;;4.10;;
24305;SDS011;12423;48.768;8.850;2022-11-20T00:12:04;5.40;;;2.47;;
24305;SDS011;12423;48.768;8.850;2022-11-20T00:14:05;5.72;;;2.65;;
24305;SDS011;12423;48.768;8.850;2022-11-20T00:16:06;6.45;;;2.83;;
24305;SDS011;12423;48.768;8.850;2022-11-20T00:18:10;3.97;;;2.15;;
24305;SDS011;12423;48.768;8.850;2022-11-20T00:20:11;3.58;;;2.00;;
24305;SDS011;12423;48.768;8.850;2022-11-20T00:22:12;5.47;;;3.08;;
24305;SDS011;12423;48.768;8.850;2022-11-20T00:24:13;7.15;;;2.58;;
24305;SDS011;12423;48.768;8.850;2022-11-20T00:26:15;6.00;;;2.67;;
24305;SDS011;12423;48.768;8.850;2022-11-20T00:28:18;5.57;;;3.00;;
24305;SDS011;12423;48.768;8.850;2022-11-20T00:30:19;6.93;;;3.00;;
24305;SDS011;12423;48.768;8.850;2022-11-20T00:32:20;6.03;;;2.95;;
24305;SDS011;12423;48.768;8.850;2022-11-20T00:34:21;6.80;;;3.50;;
24305;SDS011;12423;48.768;8.850;2022-11-20T00:36:23;11.18;;;4.30;;
24305;SDS011;12423;48.768;8.850;2022-11-20T00:38:25;8.23;;;3.33;;
24305;SDS011;12423;48.768;8.850;2022-11-20T00:40:26;9.63;;;4.30;;
24305;SDS011;12423;48.768;8.850;2022-11-20T00:42:27;10.05;;;3.78;;
24305;SDS011;12423;48.768;8.850;2022-11-20T00:44:28;9.98;;;3.92;;
24305;SDS011;12423;48.768;8.850;2022-11-20T00:46:29;5.72;;;3.03;;
24305;SDS011;12423;48.768;8.850;2022-11-20T00:48:30;8.20;;;3.30;;
24305;SDS011;12423;48.768;8.850;2022-11-20T00:50:31;4.68;;;2.65;;
24305;SDS011;12423;48.768;8.850;2022-11-20T00:52:32;5.85;;;2.13;;
24305;SDS011;12423;48.768;8.850;2022-11-20T00:54:33;3.85;;;2.10;;
24305;SDS011;12423;48.768;8.850;2022-11-20T00:56:34;3.17;;;1.58;;
24305;SDS011;12423;48.768;8.850;2022-11-20T00:58:36;3.28;;;1.92;;
24305;SDS011;12423;48.768;8.850;2022-11-20T01:00:38;4.00;;;1.60;;
24305;SDS011;12423;48.768;8.850;2022-11-20T01:02:39;3.83;;;1.75;;
24305;SDS011;12423;48.768;8.850;2022-11-20T01:04:40;3.38;;;1.58;;
24305;SDS011;12423;48.768;8.850;2022-11-20T01:06:41;2.70;;;1.40;;
24305;SDS011;12423;48.768;8.850;2022-11-20T01:08:42;5.03;;;1.73;;
24305;SDS011;12423;48.768;8.850;2022-11-20T01:10:43;6.18;;;1.60;;
24305;SDS011;12423;48.768;8.850;2022-11-20T01:12:44;5.32;;;1.73;;
24305;SDS011;12423;48.768;8.850;2022-11-20T01:15:05;2.45;;;1.27;;
24305;SDS011;12423;48.768;8.850;2022-11-20T01:17:06;2.75;;;1.50;;
24305;SDS011;12423;48.768;8.850;2022-11-20T01:19:09;3.45;;;1.30;;
24305;SDS011;12423;48.768;8.850;2022-11-20T01:21:16;3.13;;;1.48;;
24305;SDS011;12423;48.768;8.850;2022-11-20T01:23:19;3.45;;;1.40;;
24305;SDS011;12423;48.768;8.850;2022-11-20T01:25:20;3.10;;;1.77;;
24305;SDS011;12423;48.768;8.850;2022-11-20T01:27:21;6.00;;;1.70;;
24305;SDS011;12423;48.768;8.850;2022-11-20T01:29:23;4.25;;;1.60;;
24305;SDS011;12423;48.768;8.850;2022-11-20T01:33:27;3.10;;;2.00;;
24305;SDS011;12423;48.768;8.850;2022-11-20T01:35:28;4.78;;;1.92;;
24305;SDS011;12423;48.768;8.850;2022-11-20T01:37:29;4.65;;;1.80;;
24305;SDS011;12423;48.768;8.850;2022-11-20T01:39:30;3.25;;;1.55;;
24305;SDS011;12423;48.768;8.850;2022-11-20T01:41:31;4.00;;;1.88;;
24305;SDS011;12423;48.768;8.850;2022-11-20T01:43:52;4.57;;;1.83;;
24305;SDS011;12423;48.768;8.850;2022-11-20T01:48:00;2.83;;;1.48;;
24305;SDS011;12423;48.768;8.850;2022-11-20T01:50:06;3.30;;;1.70;;
24305;SDS011;12423;48.768;8.850;2022-11-20T01:52:24;3.35;;;1.50;;
24305;SDS011;12423;48.768;8.850;2022-11-20T01:54:36;3.85;;;1.70;;
24305;SDS011;12423;48.768;8.850;2022-11-20T01:56:41;2.60;;;1.40;;
24305;SDS011;12423;48.768;8.850;2022-11-20T01:58:47;2.80;;;1.58;;
24305;SDS011;12423;48.768;8.850;2022-11-20T02:00:52;2.03;;;1.17;;
24305;SDS011;12423;48.768;8.850;2022-11-20T02:02:54;2.83;;;1.35;;
24305;SDS011;12423;48.768;8.850;2022-11-20T02:05:00;2.38;;;1.38;;
24305;SDS011;12423;48.768;8.850;2022-11-20T02:07:09;4.18;;;1.58;;
24305;SDS011;12423;48.768;8.850;2022-11-20T02:09:11;2.55;;;1.50;;
24305;SDS011;12423;48.768;8.850;2022-11-20T02:11:12;3.10;;;1.60;;
24305;SDS011;12423;48.768;8.850;2022-11-20T02:13:13;3.92;;;1.48;;
24305;SDS011;12423;48.768;8.850;2022-11-20T02:15:33;2.92;;;1.50;;
24305;SDS011;12423;48.768;8.850;2022-11-20T02:17:34;4.53;;;1.58;;
24305;SDS011;12423;48.768;8.850;2022-11-20T02:19:35;2.45;;;1.38;;
24305;SDS011;12423;48.768;8.850;2022-11-20T02:21:40;3.55;;;2.42;;
24305;SDS011;12423;48.768;8.850;2022-11-20T02:23:53;3.03;;;1.60;;
24305;SDS011;12423;48.768;8.850;2022-11-20T02:26:00;5.43;;;2.17;;
24305;SDS011;12423;48.768;8.850;2022-11-20T02:28:06;4.22;;;2.00;;
24305;SDS011;12423;48.768;8.850;2022-11-20T02:30:07;4.85;;;2.25;;
24305;SDS011;12423;48.768;8.850;2022-11-20T02:32:21;3.38;;;1.88;;
24305;SDS011;12423;48.768;8.850;2022-11-20T02:34:24;5.13;;;2.53;;
24305;SDS011;12423;48.768;8.850;2022-11-20T02:36:26;5.78;;;2.00;;
24305;SDS011;12423;48.768;8.850;2022-11-20T02:38:28;8.63;;;1.80;;
24305;SDS011;12423;48.768;8.850;2022-11-20T02:40:29;3.45;;;2.08;;
24305;SDS011;12423;48.768;8.850;2022-11-20T02:42:30;4.53;;;2.30;;
24305;SDS011;12423;48.768;8.850;2022-11-20T02:44:31;3.28;;;1.85;;
24305;SDS011;12423;48.768;8.850;2022-11-20T02:46:32;3.92;;;1.67;;
24305;SDS011;12423;48.768;8.850;2022-11-20T02:48:33;6.32;;;2.60;;
24305;SDS011;12423;48.768;8.850;2022-11-20T02:50:38;3.60;;;2.00;;
24305;SDS011;12423;48.768;8.850;2022-11-20T02:52:40;4.57;;;2.30;;
24305;SDS011;12423;48.768;8.850;2022-11-20T02:54:41;3.25;;;1.73;;
24305;SDS011;12423;48.768;8.850;2022-11-20T02:56:42;3.08;;;1.90;;
24305;SDS011;12423;48.768;8.850;2022-11-20T02:58:44;3.42;;;1.85;;
24305;SDS011;12423;48.768;8.850;2022-11-20T03:00:45;4.18;;;1.83;;
24305;SDS011;12423;48.768;8.850;2022-11-20T03:02:46;3.58;;;2.15;;
24305;SDS011;12423;48.768;8.850;2022-11-20T03:04:47;3.38;;;1.80;;
24305;SDS011;12423;48.768;8.850;2022-11-20T03:06:48;3.72;;;2.08;;
24305;SDS011;12423;48.768;8.850;2022-11-20T03:08:49;4.10;;;1.92;;
24305;SDS011;12423;48.768;8.850;2022-11-20T03:10:49;4.35;;;2.20;;
24305;SDS011;12423;48.768;8.850;2022-11-20T03:12:54;3.80;;;1.77;;
24305;SDS011;12423;48.768;8.850;2022-11-20T03:14:56;5.13;;;1.92;;
24305;SDS011;12423;48.768;8.850;2022-11-20T03:16:57;3.80;;;2.03;;
24305;SDS011;12423;48.768;8.850;2022-11-20T03:18:59;3.10;;;1.70;;
24305;SDS011;12423;48.768;8.850;2022-11-20T03:21:00;2.65;;;1.58;;
24305;SDS011;12423;48.768;8.850;2022-11-20T03:23:01;5.45;;;1.55;;
24305;SDS011;12423;48.768;8.850;2022-11-20T03:25:03;3.47;;;1.80;;
24305;SDS011;12423;48.768;8.850;2022-11-20T03:27:04;3.13;;;1.75;;
24305;SDS011;12423;48.768;8.850;2022-11-20T03:29:05;3.83;;;2.10;;
24305;SDS011;12423;48.768;8.850;2022-11-20T03:31:07;3.67;;;2.10;;
24305;SDS011;12423;48.768;8.850;2022-11-20T03:33:09;7.15;;;1.98;;
24305;SDS011;12423;48.768;8.850;2022-11-20T03:35:10;4.78;;;2.40;;
24305;SDS011;12423;48.768;8.850;2022-11-20T03:37:11;3.78;;;1.92;;
24305;SDS011;12423;48.768;8.850;2022-11-20T03:39:12;6.18;;;2.40;;
24305;SDS011;12423;48.768;8.850;2022-11-20T03:41:14;6.43;;;3.03;;
24305;SDS011;12423;48.768;8.850;2022-11-20T03:43:17;4.07;;;2.17;;
24305;SDS011;12423;48.768;8.850;2022-11-20T03:45:18;4.75;;;2.15;;
24305;SDS011;12423;48.768;8.850;2022-11-20T03:47:19;4.40;;;2.30;;
24305;SDS011;12423;48.768;8.850;2022-11-20T03:49:20;4.15;;;2.10;;
24305;SDS011;12423;48.768;8.850;2022-11-20T03:51:22;3.72;;;1.85;;
24305;SDS011;12423;48.768;8.850;2022-11-20T03:53:28;4.78;;;1.80;;
24305;SDS011;12423;48.768;8.850;2022-11-20T03:55:29;3.08;;;1.90;;
24305;SDS011;12423;48.768;8.850;2022-11-20T03:57:30;3.30;;;1.98;;
24305;SDS011;12423;48.768;8.850;2022-11-20T03:59:31;4.03;;;2.15;;
24305;SDS011;12423;48.768;8.850;2022-11-20T04:01:33;4.18;;;2.20;;
24305;SDS011;12423;48.768;8.850;2022-11-20T04:03:36;5.80;;;1.80;;
24305;SDS011;12423;48.768;8.850;2022-11-20T04:05:38;5.78;;;2.70;;
24305;SDS011;12423;48.768;8.850;2022-11-20T04:07:39;4.82;;;1.90;;
24305;SDS011;12423;48.768;8.850;2022-11-20T04:09:40;4.82;;;1.90;;
24305;SDS011;12423;48.768;8.850;2022-11-20T04:11:40;2.45;;;1.65;;
24305;SDS011;12423;48.768;8.850;2022-11-20T04:13:42;10.73;;;2.00;;
24305;SDS011;12423;48.768;8.850;2022-11-20T04:15:46;3.28;;;1.77;;
24305;SDS011;12423;48.768;8.850;2022-11-20T04:17:47;4.45;;;2.13;;
24305;SDS011;12423;48.768;8.850;2022-11-20T04:19:48;4.50;;;2.00;;
24305;SDS011;12423;48.768;8.850;2022-11-20T04:21:49;4.60;;;2.10;;
24305;SDS011;12423;48.768;8.850;2022-11-20T04:23:50;4.97;;;1.83;;
24305;SDS011;12423;48.768;8.850;2022-11-20T04:25:53;3.33;;;1.73;;
24305;SDS011;12423;48.768;8.850;2022-11-20T04:27:54;4.82;;;2.28;;
24305;SDS011;12423;48.768;8.850;2022-11-20T04:29:55;6.57;;;1.98;;
24305;SDS011;12423;48.768;8.850;2022-11-20T04:31:56;5.82;;;2.60;;
24305;SDS011;12423;48.768;8.850;2022-11-20T04:34:00;4.63;;;2.33;;
24305;SDS011;12423;48.768;8.850;2022-11-20T04:36:04;3.78;;;2.03;;
24305;SDS011;12423;48.768;8.850;2022-11-20T04:38:11;4.30;;;2.23;;
24305;SDS011;12423;48.768;8.850;2022-11-20T04:40:13;5.85;;;1.98;;
24305;SDS011;12423;48.768;8.850;2022-11-20T04:42:14;3.80;;;2.20;;
24305;SDS011;12423;48.768;8.850;2022-11-20T04:44:30;3.97;;;2.00;;
24305;SDS011;12423;48.768;8.850;2022-11-20T04:46:32;3.65;;;1.85;;
24305;SDS011;12423;48.768;8.850;2022-11-20T04:48:42;4.57;;;2.50;;
24305;SDS011;12423;48.768;8.850;2022-11-20T04:50:44;3.05;;;1.80;;
24305;SDS011;12423;48.768;8.850;2022-11-20T04:52:45;3.05;;;1.95;;
24305;SDS011;12423;48.768;8.850;2022-11-20T04:54:45;4.50;;;2.25;;
24305;SDS011;12423;48.768;8.850;2022-11-20T04:56:47;4.00;;;1.90;;
24305;SDS011;12423;48.768;8.850;2022-11-20T04:58:48;4.38;;;1.80;;
24305;SDS011;12423;48.768;8.850;2022-11-20T05:00:49;4.15;;;2.17;;
24305;SDS011;12423;48.768;8.850;2022-11-20T05:02:52;4.95;;;2.30;;
24305;SDS011;12423;48.768;8.850;2022-11-20T05:04:53;5.18;;;2.10;;
24305;SDS011;12423;48.768;8.850;2022-11-20T05:06:54;3.60;;;1.88;;
24305;SDS011;12423;48.768;8.850;2022-11-20T05:08:55;4.38;;;1.90;;
24305;SDS011;12423;48.768;8.850;2022-11-20T05:10:59;3.65;;;2.05;;
24305;SDS011;12423;48.768;8.850;2022-11-20T05:13:01;4.28;;;1.90;;
24305;SDS011;12423;48.768;8.850;2022-11-20T05:15:02;3.40;;;1.85;;
24305;SDS011;12423;48.768;8.850;2022-11-20T05:17:03;6.00;;;1.83;;
24305;SDS011;12423;48.768;8.850;2022-11-20T05:19:04;5.47;;;2.20;;
24305;SDS011;12423;48.768;8.850;2022-11-20T05:21:06;4.50;;;2.08;;
24305;SDS011;12423;48.768;8.850;2022-11-20T05:23:07;3.70;;;2.20;;
24305;SDS011;12423;48.768;8.850;2022-11-20T05:25:08;3.70;;;2.15;;
24305;SDS011;12423;48.768;8.850;2022-11-20T05:27:09;4.97;;;2.17;;
24305;SDS011;12423;48.768;8.850;2022-11-20T05:29:11;3.08;;;1.80;;
24305;SDS011;12423;48.768;8.850;2022-11-20T05:31:13;3.08;;;1.98;;
24305;SDS011;12423;48.768;8.850;2022-11-20T05:33:17;7.43;;;2.10;;
24305;SDS011;12423;48.768;8.850;2022-11-20T05:35:18;3.88;;;2.05;;
24305;SDS011;12423;48.768;8.850;2022-11-20T05:37:19;5.07;;;2.30;;
24305;SDS011;12423;48.768;8.850;2022-11-20T05:39:20;3.90;;;2.38;;
24305;SDS011;12423;48.768;8.850;2022-11-20T05:41:21;3.88;;;2.20;;
24305;SDS011;12423;48.768;8.850;2022-11-20T05:43:22;5.05;;;2.10;;
24305;SDS011;12423;48.768;8.850;2022-11-20T05:45:23;5.43;;;2.00;;
24305;SDS011;12423;48.768;8.850;2022-11-20T05:47:24;5.18;;;2.10;;
24305;SDS011;12423;48.768;8.850;2022-11-20T05:49:25;3.15;;;1.83;;
24305;SDS011;12423;48.768;8.850;2022-11-20T05:51:26;4.25;;;2.15;;
24305;SDS011;12423;48.768;8.850;2022-11-20T05:53:27;3.55;;;2.00;;
24305;SDS011;12423;48.768;8.850;2022-11-20T05:55:28;2.63;;;1.65;;
24305;SDS011;12423;48.768;8.850;2022-11-20T05:57:30;3.50;;;1.80;;
24305;SDS011;12423;48.768;8.850;2022-11-20T05:59:31;4.13;;;1.70;;
24305;SDS011;12423;48.768;8.850;2022-11-20T06:01:32;6.57;;;1.95;;
24305;SDS011;12423;48.768;8.850;2022-11-20T06:03:33;2.95;;;1.90;;
24305;SDS011;12423;48.768;8.850;2022-11-20T06:05:34;3.58;;;1.90;;
24305;SDS011;12423;48.768;8.850;2022-11-20T06:07:35;2.67;;;1.67;;
24305;SDS011;12423;48.768;8.850;2022-11-20T06:09:36;3.50;;;1.90;;
24305;SDS011;12423;48.768;8.850;2022-11-20T06:11:37;3.30;;;1.70;;
24305;SDS011;12423;48.768;8.850;2022-11-20T06:13:38;2.97;;;1.50;;
24305;SDS011;12423;48.768;8.850;2022-11-20T06:15:40;6.88;;;1.95;;
24305;SDS011;12423;48.768;8.850;2022-11-20T06:17:41;4.32;;;1.90;;
24305;SDS011;12423;48.768;8.850;2022-11-20T06:19:42;2.83;;;1.70;;
24305;SDS011;12423;48.768;8.850;2022-11-20T06:21:43;3.13;;;1.70;;
24305;SDS011;12423;48.768;8.850;2022-11-20T06:23:43;4.35;;;1.67;;
24305;SDS011;12423;48.768;8.850;2022-11-20T06:25:45;3.47;;;1.80;;
24305;SDS011;12423;48.768;8.850;2022-11-20T06:27:46;3.97;;;1.75;;
24305;SDS011;12423;48.768;8.850;2022-11-20T06:29:47;5.70;;;1.73;;
24305;SDS011;12423;48.768;8.850;2022-11-20T06:31:48;4.28;;;1.50;;
24305;SDS011;12423;48.768;8.850;2022-11-20T06:33:49;3.03;;;1.50;;
24305;SDS011;12423;48.768;8.850;2022-11-20T06:35:51;2.88;;;1.52;;
24305;SDS011;12423;48.768;8.850;2022-11-20T06:37:52;2.88;;;1.65;;
24305;SDS011;12423;48.768;8.850;2022-11-20T06:39:53;3.05;;;1.60;;
24305;SDS011;12423;48.768;8.850;2022-11-20T06:41:54;2.95;;;1.67;;
24305;SDS011;12423;48.768;8.850;2022-11-20T06:43:55;2.88;;;1.45;;
24305;SDS011;12423;48.768;8.850;2022-11-20T06:45:57;2.58;;;1.40;;
24305;SDS011;12423;48.768;8.850;2022-11-20T06:47:58;2.35;;;1.17;;
24305;SDS011;12423;48.768;8.850;2022-11-20T06:49:59;3.15;;;1.20;;
24305;SDS011;12423;48.768;8.850;2022-11-20T06:52:00;2.40;;;1.10;;
24305;SDS011;12423;48.768;8.850;2022-11-20T06:54:01;1.77;;;1.10;;
24305;SDS011;12423;48.768;8.850;2022-11-20T06:56:02;2.28;;;1.17;;
24305;SDS011;12423;48.768;8.850;2022-11-20T06:58:04;2.15;;;1.17;;
24305;SDS011;12423;48.768;8.850;2022-11-20T07:00:05;1.80;;;1.10;;
24305;SDS011;12423;48.768;8.850;2022-11-20T07:02:09;3.47;;;1.42;;
24305;SDS011;12423;48.768;8.850;2022-11-20T07:04:11;2.40;;;1.30;;
24305;SDS011;12423;48.768;8.850;2022-11-20T07:06:12;8.13;;;3.83;;
24305;SDS011;12423;48.768;8.850;2022-11-20T07:08:13;6.32;;;3.17;;
24305;SDS011;12423;48.768;8.850;2022-11-20T07:10:14;4.95;;;2.67;;
24305;SDS011;12423;48.768;8.850;2022-11-20T07:12:15;5.43;;;2.05;;
24305;SDS011;12423;48.768;8.850;2022-11-20T07:14:17;4.43;;;2.35;;
24305;SDS011;12423;48.768;8.850;2022-11-20T07:16:18;4.05;;;2.10;;
24305;SDS011;12423;48.768;8.850;2022-11-20T07:18:18;2.70;;;1.35;;
24305;SDS011;12423;48.768;8.850;2022-11-20T07:20:19;1.88;;;1.10;;
24305;SDS011;12423;48.768;8.850;2022-11-20T07:22:20;3.03;;;1.40;;
24305;SDS011;12423;48.768;8.850;2022-11-20T07:24:22;2.25;;;1.20;;
24305;SDS011;12423;48.768;8.850;2022-11-20T07:26:23;1.90;;;1.00;;
24305;SDS011;12423;48.768;8.850;2022-11-20T07:28:24;1.83;;;1.00;;
24305;SDS011;12423;48.768;8.850;2022-11-20T07:30:25;2.22;;;1.10;;
24305;SDS011;12423;48.768;8.850;2022-11-20T07:32:27;1.88;;;0.98;;
24305;SDS011;12423;48.768;8.850;2022-11-20T07:34:28;1.85;;;1.10;;
24305;SDS011;12423;48.768;8.850;2022-11-20T07:36:28;4.35;;;1.40;;
24305;SDS011;12423;48.768;8.850;2022-11-20T07:38:29;1.38;;;0.90;;
24305;SDS011;12423;48.768;8.850;2022-11-20T07:40:30;1.67;;;1.00;;
24305;SDS011;12423;48.768;8.850;2022-11-20T07:42:31;3.13;;;0.95;;
24305;SDS011;12423;48.768;8.850;2022-11-20T07:44:32;2.25;;;1.05;;
24305;SDS011;12423;48.768;8.850;2022-11-20T07:46:33;1.20;;;0.68;;
24305;SDS011;12423;48.768;8.850;2022-11-20T07:48:34;1.02;;;0.70;;
24305;SDS011;12423;48.768;8.850;2022-11-20T07:50:35;2.55;;;0.85;;
24305;SDS011;12423;48.768;8.850;2022-11-20T07:52:36;1.38;;;0.77;;
24305;SDS011;12423;48.768;8.850;2022-11-20T07:54:38;2.35;;;0.80;;
24305;SDS011;12423;48.768;8.850;2022-11-20T07:56:38;3.03;;;1.10;;
24305;SDS011;12423;48.768;8.850;2022-11-20T07:58:39;1.33;;;0.77;;
24305;SDS011;12423;48.768;8.850;2022-11-20T08:00:40;1.50;;;0.55;;
24305;SDS011;12423;48.768;8.850;2022-11-20T08:02:41;0.85;;;0.43;;
24305;SDS011;12423;48.768;8.850;2022-11-20T08:04:43;1.23;;;0.57;;
24305;SDS011;12423;48.768;8.850;2022-11-20T08:06:44;0.70;;;0.40;;
24305;SDS011;12423;48.768;8.850;2022-11-20T08:08:45;0.90;;;0.50;;
24305;SDS011;12423;48.768;8.850;2022-11-20T08:10:46;1.55;;;0.60;;
24305;SDS011;12423;48.768;8.850;2022-11-20T08:12:47;1.25;;;0.63;;
24305;SDS011;12423;48.768;8.850;2022-11-20T08:15:08;1.20;;;0.60;;
24305;SDS011;12423;48.768;8.850;2022-11-20T08:17:09;0.90;;;0.55;;
24305;SDS011;12423;48.768;8.850;2022-11-20T08:19:11;1.73;;;0.68;;
24305;SDS011;12423;48.768;8.850;2022-11-20T08:21:13;1.13;;;0.45;;
24305;SDS011;12423;48.768;8.850;2022-11-20T08:23:14;1.20;;;0.50;;
24305;SDS011;12423;48.768;8.850;2022-11-20T08:25:15;1.10;;;0.68;;
24305;SDS011;12423;48.768;8.850;2022-11-20T08:27:16;1.45;;;0.70;;
24305;SDS011;12423;48.768;8.850;2022-11-20T08:29:16;1.40;;;0.65;;
24305;SDS011;12423;48.768;8.850;2022-11-20T08:31:17;1.33;;;0.80;;
24305;SDS011;12423;48.768;8.850;2022-11-20T08:33:18;1.17;;;0.65;;
24305;SDS011;12423;48.768;8.850;2022-11-20T08:35:20;1.42;;;0.70;;
24305;SDS011;12423;48.768;8.850;2022-11-20T08:37:22;1.08;;;0.60;;
24305;SDS011;12423;48.768;8.850;2022-11-20T08:39:22;0.95;;;0.60;;
24305;SDS011;12423;48.768;8.850;2022-11-20T08:41:23;1.27;;;0.60;;
24305;SDS011;12423;48.768;8.850;2022-11-20T08:43:24;2.72;;;0.88;;
24305;SDS011;12423;48.768;8.850;2022-11-20T08:45:25;1.13;;;0.60;;
24305;SDS011;12423;48.768;8.850;2022-11-20T08:47:26;1.42;;;0.73;;
24305;SDS011;12423;48.768;8.850;2022-11-20T08:49:27;1.23;;;0.75;;
24305;SDS011;12423;48.768;8.850;2022-11-20T08:51:28;0.90;;;0.57;;
24305;SDS011;12423;48.768;8.850;2022-11-20T08:53:29;2.15;;;0.82;;
24305;SDS011;12423;48.768;8.850;2022-11-20T08:55:30;1.58;;;0.80;;
24305;SDS011;12423;48.768;8.850;2022-11-20T08:57:32;1.15;;;0.60;;
24305;SDS011;12423;48.768;8.850;2022-11-20T08:59:34;1.13;;;0.60;;
24305;SDS011;12423;48.768;8.850;2022-11-20T09:01:34;1.52;;;0.60;;
24305;SDS011;12423;48.768;8.850;2022-11-20T09:03:35;2.08;;;1.05;;
24305;SDS011;12423;48.768;8.850;2022-11-20T09:05:36;1.55;;;0.73;;
24305;SDS011;12423;48.768;8.850;2022-11-20T09:07:37;1.63;;;0.80;;
24305;SDS011;12423;48.768;8.850;2022-11-20T09:09:38;1.52;;;0.65;;
24305;SDS011;12423;48.768;8.850;2022-11-20T09:11:39;0.88;;;0.60;;
24305;SDS011;12423;48.768;8.850;2022-11-20T09:13:40;2.67;;;0.70;;
24305;SDS011;12423;48.768;8.850;2022-11-20T09:15:41;1.38;;;0.73;;
24305;SDS011;12423;48.768;8.850;2022-11-20T09:17:42;2.35;;;1.10;;
24305;SDS011;12423;48.768;8.850;2022-11-20T09:19:50;2.10;;;0.60;;
24305;SDS011;12423;48.768;8.850;2022-11-20T09:21:51;0.90;;;0.50;;
24305;SDS011;12423;48.768;8.850;2022-11-20T09:23:52;3.35;;;0.77;;
24305;SDS011;12423;48.768;8.850;2022-11-20T09:25:53;1.17;;;0.60;;
24305;SDS011;12423;48.768;8.850;2022-11-20T09:27:56;1.52;;;0.57;;
24305;SDS011;12423;48.768;8.850;2022-11-20T09:29:58;1.10;;;0.63;;
24305;SDS011;12423;48.768;8.850;2022-11-20T09:31:59;1.40;;;0.65;;
24305;SDS011;12423;48.768;8.850;2022-11-20T09:34:00;0.30;;;0.30;;
24305;SDS011;12423;48.768;8.850;2022-11-20T09:36:01;0.47;;;0.40;;
24305;SDS011;12423;48.768;8.850;2022-11-20T09:38:05;1.42;;;0.60;;
24305;SDS011;12423;48.768;8.850;2022-11-20T09:40:09;0.68;;;0.50;;
24305;SDS011;12423;48.768;8.850;2022-11-20T09:50:55;1.17;;;0.70;;
24305;SDS011;12423;48.768;8.850;2022-11-20T09:55:37;4.13;;;1.38;;
24305;SDS011;12423;48.768;8.850;2022-11-20T09:57:42;2.03;;;1.10;;
24305;SDS011;12423;48.768;8.850;2022-11-20T09:59:46;2.33;;;1.00;;
24305;SDS011;12423;48.768;8.850;2022-11-20T10:01:51;1.75;;;1.02;;
24305;SDS011;12423;48.768;8.850;2022-11-20T10:03:58;2.30;;;1.20;;
24305;SDS011;12423;48.768;8.850;2022-11-20T10:06:04;0.10;;;0.10;;
24305;SDS011;12423;48.768;8.850;2022-11-20T10:08:25;0.52;;;0.52;;
24305;SDS011;12423;48.768;8.850;2022-11-20T10:10:33;0.30;;;0.30;;
24305;SDS011;12423;48.768;8.850;2022-11-20T10:17:51;0.00;;;0.00;;
24305;SDS011;12423;48.768;8.850;2022-11-20T10:22:21;0.10;;;0.10;;
24305;SDS011;12423;48.768;8.850;2022-11-20T10:24:42;0.10;;;0.10;;
24305;SDS011;12423;48.768;8.850;2022-11-20T10:29:16;0.10;;;0.10;;
24305;SDS011;12423;48.768;8.850;2022-11-20T10:33:46;0.10;;;0.10;;
24305;SDS011;12423;48.768;8.850;2022-11-20T10:35:55;0.10;;;0.10;;
24305;SDS011;12423;48.768;8.850;2022-11-20T10:38:01;0.00;;;0.00;;
24305;SDS011;12423;48.768;8.850;2022-11-20T10:40:17;0.10;;;0.10;;
24305;SDS011;12423;48.768;8.850;2022-11-20T10:44:46;0.00;;;0.00;;
24305;SDS011;12423;48.768;8.850;2022-11-20T10:47:03;0.10;;;0.10;;
24305;SDS011;12423;48.768;8.850;2022-11-20T10:49:15;0.00;;;0.00;;
24305;SDS011;12423;48.768;8.850;2022-11-20T10:55:59;0.10;;;0.10;;
24305;SDS011;12423;48.768;8.850;2022-11-20T11:00:09;0.30;;;0.30;;
24305;SDS011;12423;48.768;8.850;2022-11-20T11:02:15;0.28;;;0.28;;
24305;SDS011;12423;48.768;8.850;2022-11-20T11:06:37;0.00;;;0.00;;
24305;SDS011;12423;48.768;8.850;2022-11-20T11:08:43;0.17;;;0.17;;
24305;SDS011;12423;48.768;8.850;2022-11-20T11:10:51;0.38;;;0.30;;
24305;SDS011;12423;48.768;8.850;2022-11-20T11:12:55;0.10;;;0.10;;
24305;SDS011;12423;48.768;8.850;2022-11-20T11:14:56;0.10;;;0.10;;
24305;SDS011;12423;48.768;8.850;2022-11-20T11:16:58;0.10;;;0.10;;
24305;SDS011;12423;48.768;8.850;2022-11-20T11:19:33;9.55;;;5.80;;
24305;SDS011;12423;48.768;8.850;2022-11-20T11:21:26;0.10;;;0.10;;
24305;SDS011;12423;48.768;8.850;2022-11-20T11:23:32;0.10;;;0.10;;
24305;SDS011;12423;48.768;8.850;2022-11-20T11:25:40;0.00;;;0.00;;
24305;SDS011;12423;48.768;8.850;2022-11-20T11:27:48;0.00;;;0.00;;
24305;SDS011;12423;48.768;8.850;2022-11-20T11:29:50;0.30;;;0.30;;
24305;SDS011;12423;48.768;8.850;2022-11-20T11:32:04;0.00;;;0.00;;
24305;SDS011;12423;48.768;8.850;2022-11-20T11:34:14;0.00;;;0.00;;
24305;SDS011;12423;48.768;8.850;2022-11-20T11:36:17;0.00;;;0.00;;
24305;SDS011;12423;48.768;8.850;2022-11-20T11:38:38;0.20;;;0.20;;
24305;SDS011;12423;48.768;8.850;2022-11-20T11:40:41;0.00;;;0.00;;
24305;SDS011;12423;48.768;8.850;2022-11-20T11:43:04;0.00;;;0.00;;
24305;SDS011;12423;48.768;8.850;2022-11-20T11:45:26;0.00;;;0.00;;
24305;SDS011;12423;48.768;8.850;2022-11-20T11:47:42;0.57;;;0.57;;
24305;SDS011;12423;48.768;8.850;2022-11-20T11:49:46;0.00;;;0.00;;
24305;SDS011;12423;48.768;8.850;2022-11-20T11:51:52;0.20;;;0.20;;
24305;SDS011;12423;48.768;8.850;2022-11-20T11:54:02;0.10;;;0.10;;
24305;SDS011;12423;48.768;8.850;2022-11-20T11:56:14;1.00;;;1.00;;
24305;SDS011;12423;48.768;8.850;2022-11-20T12:00:39;0.00;;;0.00;;
24305;SDS011;12423;48.768;8.850;2022-11-20T12:04:49;0.00;;;0.00;;
24305;SDS011;12423;48.768;8.850;2022-11-20T12:07:00;0.00;;;0.00;;
24305;SDS011;12423;48.768;8.850;2022-11-20T12:09:10;0.00;;;0.00;;
24305;SDS011;12423;48.768;8.850;2022-11-20T12:11:33;0.20;;;0.20;;
24305;SDS011;12423;48.768;8.850;2022-11-20T12:13:39;0.00;;;0.00;;
24305;SDS011;12423;48.768;8.850;2022-11-20T12:15:43;0.10;;;0.10;;
24305;SDS011;12423;48.768;8.850;2022-11-20T12:17:46;0.00;;;0.00;;
24305;SDS011;12423;48.768;8.850;2022-11-20T12:19:48;0.00;;;0.00;;
24305;SDS011;12423;48.768;8.850;2022-11-20T12:26:56;0.00;;;0.00;;
24305;SDS011;12423;48.768;8.850;2022-11-20T12:29:15;0.00;;;0.00;;
24305;SDS011;12423;48.768;8.850;2022-11-20T12:34:02;0.00;;;0.00;;
24305;SDS011;12423;48.768;8.850;2022-11-20T12:44:03;0.00;;;0.00;;
24305;SDS011;12423;48.768;8.850;2022-11-20T12:46:54;0.00;;;0.00;;
24305;SDS011;12423;48.768;8.850;2022-11-20T12:49:18;0.00;;;0.00;;
24305;SDS011;12423;48.768;8.850;2022-11-20T12:58:08;0.03;;;0.03;;
24305;SDS011;12423;48.768;8.850;2022-11-20T13:00:18;0.10;;;0.10;;
24305;SDS011;12423;48.768;8.850;2022-11-20T13:05:27;0.00;;;0.00;;
24305;SDS011;12423;48.768;8.850;2022-11-20T13:07:24;0.00;;;0.00;;
24305;SDS011;12423;48.768;8.850;2022-11-20T13:09:28;0.10;;;0.10;;
24305;SDS011;12423;48.768;8.850;2022-11-20T13:11:41;0.00;;;0.00;;
24305;SDS011;12423;48.768;8.850;2022-11-20T13:16:05;0.00;;;0.00;;
24305;SDS011;12423;48.768;8.850;2022-11-20T13:18:16;0.00;;;0.00;;
24305;SDS011;12423;48.768;8.850;2022-11-20T13:20:19;0.00;;;0.00;;
24305;SDS011;12423;48.768;8.850;2022-11-20T13:22:24;0.10;;;0.10;;
24305;SDS011;12423;48.768;8.850;2022-11-20T13:24:30;0.03;;;0.03;;
24305;SDS011;12423;48.768;8.850;2022-11-20T13:26:31;0.13;;;0.13;;
24305;SDS011;12423;48.768;8.850;2022-11-20T13:28:33;0.00;;;0.00;;
24305;SDS011;12423;48.768;8.850;2022-11-20T13:30:34;0.00;;;0.00;;
24305;SDS011;12423;48.768;8.850;2022-11-20T13:32:36;0.00;;;0.00;;
24305;SDS011;12423;48.768;8.850;2022-11-20T13:34:52;0.10;;;0.10;;
24305;SDS011;12423;48.768;8.850;2022-11-20T13:36:58;0.20;;;0.20;;